Brookfield, Wisconsin
Current Conditions -  °F | °C
As of 5:45 AM on Thursday 29 Jan 2015 (Local Time) from KUES Reporting Station
Overcast Overcast  
Wind Chill: 21°   Ceiling: 1600
Heat Index: 28°   Visibility: 7mi
Dew Point: 25°   Wind: 7mph
Humidity: 86%   Direction: 300°WNW
Pressure: 29.75"   Gusts: NA
Location:  43.06°N, 88.13°W
Report Text: KUES 291145Z 30006KT 7SM OVC016 M02/M04 A2975
Loading
Personal Weather Stations






























Interactive Weather Map New forecast layout! Learn more

10-Day Weather Forecast

Advertisements
Track Severe Weather on mobile